sensor_id;sensor_type;location;lat;lon;timestamp;P1;durP1;ratioP1;P2;durP2;ratioP2
67839;SDS011;54636;51.684;5.142;2022-09-09T00:02:05;1.85;;;1.35;;
67839;SDS011;54636;51.684;5.142;2022-09-09T00:04:37;3.78;;;1.40;;
67839;SDS011;54636;51.684;5.142;2022-09-09T00:07:15;1.83;;;0.95;;
67839;SDS011;54636;51.684;5.142;2022-09-09T00:09:47;2.97;;;1.23;;
67839;SDS011;54636;51.684;5.142;2022-09-09T00:15:25;2.03;;;1.30;;
67839;SDS011;54636;51.684;5.142;2022-09-09T00:18:10;3.00;;;1.15;;
67839;SDS011;54636;51.684;5.142;2022-09-09T00:20:42;3.33;;;1.50;;
67839;SDS011;54636;51.684;5.142;2022-09-09T00:26:00;2.53;;;1.38;;
67839;SDS011;54636;51.684;5.142;2022-09-09T00:28:33;4.25;;;1.25;;
67839;SDS011;54636;51.684;5.142;2022-09-09T00:31:13;2.60;;;1.50;;
67839;SDS011;54636;51.684;5.142;2022-09-09T00:33:43;3.38;;;1.55;;
67839;SDS011;54636;51.684;5.142;2022-09-09T00:36:12;3.22;;;1.60;;
67839;SDS011;54636;51.684;5.142;2022-09-09T00:38:42;2.85;;;1.60;;
67839;SDS011;54636;51.684;5.142;2022-09-09T00:42:01;2.30;;;1.50;;
67839;SDS011;54636;51.684;5.142;2022-09-09T00:44:07;5.93;;;1.65;;
67839;SDS011;54636;51.684;5.142;2022-09-09T00:46:53;1.92;;;1.42;;
67839;SDS011;54636;51.684;5.142;2022-09-09T00:49:39;1.83;;;1.73;;
67839;SDS011;54636;51.684;5.142;2022-09-09T00:58:15;3.33;;;2.10;;
67839;SDS011;54636;51.684;5.142;2022-09-09T01:00:44;4.40;;;2.20;;
67839;SDS011;54636;51.684;5.142;2022-09-09T01:03:28;2.80;;;2.10;;
67839;SDS011;54636;51.684;5.142;2022-09-09T01:11:21;3.75;;;2.30;;
67839;SDS011;54636;51.684;5.142;2022-09-09T01:13:53;5.72;;;2.17;;
67839;SDS011;54636;51.684;5.142;2022-09-09T01:16:26;2.75;;;2.55;;
67839;SDS011;54636;51.684;5.142;2022-09-09T01:18:54;4.30;;;2.40;;
67839;SDS011;54636;51.684;5.142;2022-09-09T01:21:43;5.45;;;2.70;;
67839;SDS011;54636;51.684;5.142;2022-09-09T01:24:27;4.95;;;2.63;;
67839;SDS011;54636;51.684;5.142;2022-09-09T01:27:00;3.78;;;2.45;;
67839;SDS011;54636;51.684;5.142;2022-09-09T01:29:27;5.45;;;3.42;;
67839;SDS011;54636;51.684;5.142;2022-09-09T01:31:57;4.55;;;2.88;;
67839;SDS011;54636;51.684;5.142;2022-09-09T01:34:31;3.20;;;2.90;;
67839;SDS011;54636;51.684;5.142;2022-09-09T01:37:02;6.93;;;2.85;;
67839;SDS011;54636;51.684;5.142;2022-09-09T01:39:31;2.55;;;2.35;;
67839;SDS011;54636;51.684;5.142;2022-09-09T01:41:58;4.90;;;2.75;;
67839;SDS011;54636;51.684;5.142;2022-09-09T01:44:24;4.82;;;2.53;;
67839;SDS011;54636;51.684;5.142;2022-09-09T01:46:50;6.93;;;3.00;;
67839;SDS011;54636;51.684;5.142;2022-09-09T01:49:16;3.10;;;2.60;;
67839;SDS011;54636;51.684;5.142;2022-09-09T01:51:42;7.55;;;2.90;;
67839;SDS011;54636;51.684;5.142;2022-09-09T01:54:11;5.65;;;2.80;;
67839;SDS011;54636;51.684;5.142;2022-09-09T02:02:27;5.00;;;2.50;;
67839;SDS011;54636;51.684;5.142;2022-09-09T02:05:01;5.13;;;2.33;;
67839;SDS011;54636;51.684;5.142;2022-09-09T02:07:48;6.05;;;2.53;;
67839;SDS011;54636;51.684;5.142;2022-09-09T02:11:16;11.80;;;2.58;;
67839;SDS011;54636;51.684;5.142;2022-09-09T02:13:13;4.28;;;2.42;;
67839;SDS011;54636;51.684;5.142;2022-09-09T02:18:09;3.67;;;1.95;;
67839;SDS011;54636;51.684;5.142;2022-09-09T02:20:37;4.22;;;2.75;;
67839;SDS011;54636;51.684;5.142;2022-09-09T02:23:04;5.10;;;2.55;;
67839;SDS011;54636;51.684;5.142;2022-09-09T02:25:32;2.92;;;2.40;;
67839;SDS011;54636;51.684;5.142;2022-09-09T02:28:00;9.00;;;2.80;;
67839;SDS011;54636;51.684;5.142;2022-09-09T02:30:27;9.35;;;2.65;;
67839;SDS011;54636;51.684;5.142;2022-09-09T02:32:56;3.50;;;2.72;;
67839;SDS011;54636;51.684;5.142;2022-09-09T02:35:24;3.13;;;2.85;;
67839;SDS011;54636;51.684;5.142;2022-09-09T02:37:51;8.13;;;2.97;;
67839;SDS011;54636;51.684;5.142;2022-09-09T02:40:21;8.45;;;3.08;;
67839;SDS011;54636;51.684;5.142;2022-09-09T02:42:47;4.22;;;2.53;;
67839;SDS011;54636;51.684;5.142;2022-09-09T02:45:17;4.55;;;2.30;;
67839;SDS011;54636;51.684;5.142;2022-09-09T02:50:29;4.00;;;2.55;;
67839;SDS011;54636;51.684;5.142;2022-09-09T02:55:50;7.25;;;2.55;;
67839;SDS011;54636;51.684;5.142;2022-09-09T02:58:22;4.75;;;2.65;;
67839;SDS011;54636;51.684;5.142;2022-09-09T03:00:48;3.55;;;2.47;;
67839;SDS011;54636;51.684;5.142;2022-09-09T03:03:15;3.80;;;2.80;;
67839;SDS011;54636;51.684;5.142;2022-09-09T03:05:42;4.30;;;2.60;;
67839;SDS011;54636;51.684;5.142;2022-09-09T03:08:09;4.22;;;2.25;;
67839;SDS011;54636;51.684;5.142;2022-09-09T03:10:35;6.35;;;3.17;;
67839;SDS011;54636;51.684;5.142;2022-09-09T03:13:02;10.30;;;2.97;;
67839;SDS011;54636;51.684;5.142;2022-09-09T03:15:29;4.78;;;2.50;;
67839;SDS011;54636;51.684;5.142;2022-09-09T03:17:56;8.27;;;2.70;;
67839;SDS011;54636;51.684;5.142;2022-09-09T03:20:23;6.10;;;2.58;;
67839;SDS011;54636;51.684;5.142;2022-09-09T03:22:50;6.20;;;2.60;;
67839;SDS011;54636;51.684;5.142;2022-09-09T03:25:16;6.93;;;2.92;;
67839;SDS011;54636;51.684;5.142;2022-09-09T03:27:42;7.50;;;3.97;;
67839;SDS011;54636;51.684;5.142;2022-09-09T03:30:08;6.07;;;3.22;;
67839;SDS011;54636;51.684;5.142;2022-09-09T03:32:34;6.53;;;2.72;;
67839;SDS011;54636;51.684;5.142;2022-09-09T03:34:59;6.63;;;3.22;;
67839;SDS011;54636;51.684;5.142;2022-09-09T03:37:25;4.43;;;2.70;;
67839;SDS011;54636;51.684;5.142;2022-09-09T03:39:50;7.43;;;2.92;;
67839;SDS011;54636;51.684;5.142;2022-09-09T03:42:16;6.78;;;2.63;;
67839;SDS011;54636;51.684;5.142;2022-09-09T03:44:45;5.65;;;2.63;;
67839;SDS011;54636;51.684;5.142;2022-09-09T03:47:18;7.22;;;2.70;;
67839;SDS011;54636;51.684;5.142;2022-09-09T03:49:46;6.95;;;2.53;;
67839;SDS011;54636;51.684;5.142;2022-09-09T03:52:13;8.00;;;2.67;;
67839;SDS011;54636;51.684;5.142;2022-09-09T03:54:39;6.47;;;2.72;;
67839;SDS011;54636;51.684;5.142;2022-09-09T03:57:06;6.60;;;2.83;;
67839;SDS011;54636;51.684;5.142;2022-09-09T03:59:31;7.95;;;2.88;;
67839;SDS011;54636;51.684;5.142;2022-09-09T04:01:57;8.82;;;3.15;;
67839;SDS011;54636;51.684;5.142;2022-09-09T04:04:24;7.55;;;2.78;;
67839;SDS011;54636;51.684;5.142;2022-09-09T04:06:49;10.25;;;3.25;;
67839;SDS011;54636;51.684;5.142;2022-09-09T04:09:15;8.55;;;3.25;;
67839;SDS011;54636;51.684;5.142;2022-09-09T04:11:41;7.53;;;3.00;;
67839;SDS011;54636;51.684;5.142;2022-09-09T04:14:06;10.45;;;2.85;;
67839;SDS011;54636;51.684;5.142;2022-09-09T04:16:32;8.57;;;3.40;;
67839;SDS011;54636;51.684;5.142;2022-09-09T04:18:58;6.10;;;3.20;;
67839;SDS011;54636;51.684;5.142;2022-09-09T04:21:25;5.75;;;3.30;;
67839;SDS011;54636;51.684;5.142;2022-09-09T04:23:51;11.38;;;3.20;;
67839;SDS011;54636;51.684;5.142;2022-09-09T04:26:16;6.00;;;3.20;;
67839;SDS011;54636;51.684;5.142;2022-09-09T04:28:42;8.05;;;3.05;;
67839;SDS011;54636;51.684;5.142;2022-09-09T04:31:14;5.55;;;2.95;;
67839;SDS011;54636;51.684;5.142;2022-09-09T04:33:45;12.38;;;3.13;;
67839;SDS011;54636;51.684;5.142;2022-09-09T04:36:11;10.88;;;3.17;;
67839;SDS011;54636;51.684;5.142;2022-09-09T04:38:37;10.38;;;2.95;;
67839;SDS011;54636;51.684;5.142;2022-09-09T04:41:03;9.60;;;2.60;;
67839;SDS011;54636;51.684;5.142;2022-09-09T04:43:29;11.65;;;3.03;;
67839;SDS011;54636;51.684;5.142;2022-09-09T04:45:55;7.82;;;3.42;;
67839;SDS011;54636;51.684;5.142;2022-09-09T04:48:21;9.95;;;3.40;;
67839;SDS011;54636;51.684;5.142;2022-09-09T04:51:03;12.57;;;3.15;;
67839;SDS011;54636;51.684;5.142;2022-09-09T04:53:30;11.32;;;3.53;;
67839;SDS011;54636;51.684;5.142;2022-09-09T04:58:29;7.35;;;3.35;;
67839;SDS011;54636;51.684;5.142;2022-09-09T05:00:54;9.55;;;3.33;;
67839;SDS011;54636;51.684;5.142;2022-09-09T05:03:20;13.93;;;4.13;;
67839;SDS011;54636;51.684;5.142;2022-09-09T05:05:45;9.40;;;3.45;;
67839;SDS011;54636;51.684;5.142;2022-09-09T05:08:11;11.30;;;3.88;;
67839;SDS011;54636;51.684;5.142;2022-09-09T05:10:37;11.40;;;4.03;;
67839;SDS011;54636;51.684;5.142;2022-09-09T05:13:03;13.13;;;4.05;;
67839;SDS011;54636;51.684;5.142;2022-09-09T05:15:29;13.65;;;3.25;;
67839;SDS011;54636;51.684;5.142;2022-09-09T05:17:58;15.57;;;4.00;;
67839;SDS011;54636;51.684;5.142;2022-09-09T05:20:25;12.32;;;3.67;;
67839;SDS011;54636;51.684;5.142;2022-09-09T05:22:55;13.43;;;3.70;;
67839;SDS011;54636;51.684;5.142;2022-09-09T05:25:21;12.13;;;3.30;;
67839;SDS011;54636;51.684;5.142;2022-09-09T05:27:47;9.65;;;3.55;;
67839;SDS011;54636;51.684;5.142;2022-09-09T05:30:13;13.70;;;4.10;;
67839;SDS011;54636;51.684;5.142;2022-09-09T05:32:38;10.18;;;3.88;;
67839;SDS011;54636;51.684;5.142;2022-09-09T05:35:04;13.45;;;3.58;;
67839;SDS011;54636;51.684;5.142;2022-09-09T05:37:30;9.90;;;3.78;;
67839;SDS011;54636;51.684;5.142;2022-09-09T05:39:56;8.95;;;3.17;;
67839;SDS011;54636;51.684;5.142;2022-09-09T05:42:22;10.70;;;3.88;;
67839;SDS011;54636;51.684;5.142;2022-09-09T05:44:48;12.30;;;4.05;;
67839;SDS011;54636;51.684;5.142;2022-09-09T05:47:13;12.00;;;4.30;;
67839;SDS011;54636;51.684;5.142;2022-09-09T05:49:40;12.27;;;3.60;;
67839;SDS011;54636;51.684;5.142;2022-09-09T05:52:05;8.00;;;3.45;;
67839;SDS011;54636;51.684;5.142;2022-09-09T05:54:31;8.52;;;3.28;;
67839;SDS011;54636;51.684;5.142;2022-09-09T05:56:57;11.32;;;3.08;;
67839;SDS011;54636;51.684;5.142;2022-09-09T05:59:24;7.75;;;3.08;;
67839;SDS011;54636;51.684;5.142;2022-09-09T06:01:49;12.07;;;3.47;;
67839;SDS011;54636;51.684;5.142;2022-09-09T06:04:15;19.48;;;3.70;;
67839;SDS011;54636;51.684;5.142;2022-09-09T06:06:41;15.80;;;3.40;;
67839;SDS011;54636;51.684;5.142;2022-09-09T06:09:07;14.65;;;3.95;;
67839;SDS011;54636;51.684;5.142;2022-09-09T06:11:38;12.13;;;3.03;;
67839;SDS011;54636;51.684;5.142;2022-09-09T06:14:05;8.82;;;3.33;;
67839;SDS011;54636;51.684;5.142;2022-09-09T06:16:31;10.40;;;3.00;;
67839;SDS011;54636;51.684;5.142;2022-09-09T06:18:57;8.95;;;3.10;;
67839;SDS011;54636;51.684;5.142;2022-09-09T06:21:30;12.13;;;3.97;;
67839;SDS011;54636;51.684;5.142;2022-09-09T06:24:04;12.60;;;3.50;;
67839;SDS011;54636;51.684;5.142;2022-09-09T06:26:31;14.43;;;3.40;;
67839;SDS011;54636;51.684;5.142;2022-09-09T06:28:58;16.30;;;3.45;;
67839;SDS011;54636;51.684;5.142;2022-09-09T06:31:25;11.50;;;3.22;;
67839;SDS011;54636;51.684;5.142;2022-09-09T06:33:55;7.82;;;3.17;;
67839;SDS011;54636;51.684;5.142;2022-09-09T06:36:22;8.93;;;2.55;;
67839;SDS011;54636;51.684;5.142;2022-09-09T06:38:49;14.85;;;3.22;;
67839;SDS011;54636;51.684;5.142;2022-09-09T06:41:17;14.27;;;3.22;;
67839;SDS011;54636;51.684;5.142;2022-09-09T06:43:43;9.98;;;2.80;;
67839;SDS011;54636;51.684;5.142;2022-09-09T06:46:19;10.48;;;2.45;;
67839;SDS011;54636;51.684;5.142;2022-09-09T06:48:47;12.02;;;2.75;;
67839;SDS011;54636;51.684;5.142;2022-09-09T06:51:13;9.48;;;2.45;;
67839;SDS011;54636;51.684;5.142;2022-09-09T06:53:46;7.35;;;2.30;;
67839;SDS011;54636;51.684;5.142;2022-09-09T06:56:19;8.20;;;2.45;;
67839;SDS011;54636;51.684;5.142;2022-09-09T06:58:48;9.20;;;2.22;;
67839;SDS011;54636;51.684;5.142;2022-09-09T07:01:15;10.40;;;2.83;;
67839;SDS011;54636;51.684;5.142;2022-09-09T07:03:44;9.50;;;2.75;;
67839;SDS011;54636;51.684;5.142;2022-09-09T07:06:15;7.90;;;2.42;;
67839;SDS011;54636;51.684;5.142;2022-09-09T07:08:43;7.40;;;3.10;;
67839;SDS011;54636;51.684;5.142;2022-09-09T07:11:09;10.95;;;2.13;;
67839;SDS011;54636;51.684;5.142;2022-09-09T07:13:36;8.82;;;2.10;;
67839;SDS011;54636;51.684;5.142;2022-09-09T07:16:08;10.82;;;2.40;;
67839;SDS011;54636;51.684;5.142;2022-09-09T07:18:41;11.35;;;2.30;;
67839;SDS011;54636;51.684;5.142;2022-09-09T07:21:07;11.20;;;2.20;;
67839;SDS011;54636;51.684;5.142;2022-09-09T07:23:34;6.93;;;2.13;;
67839;SDS011;54636;51.684;5.142;2022-09-09T07:26:00;11.02;;;2.58;;
67839;SDS011;54636;51.684;5.142;2022-09-09T07:28:26;10.35;;;2.17;;
67839;SDS011;54636;51.684;5.142;2022-09-09T07:30:57;8.48;;;2.83;;
67839;SDS011;54636;51.684;5.142;2022-09-09T07:33:25;8.90;;;2.30;;
67839;SDS011;54636;51.684;5.142;2022-09-09T07:35:50;5.28;;;1.77;;
67839;SDS011;54636;51.684;5.142;2022-09-09T07:38:17;11.63;;;3.40;;
67839;SDS011;54636;51.684;5.142;2022-09-09T07:40:43;6.22;;;1.88;;
67839;SDS011;54636;51.684;5.142;2022-09-09T07:43:09;13.70;;;2.10;;
67839;SDS011;54636;51.684;5.142;2022-09-09T07:45:35;9.68;;;2.40;;
67839;SDS011;54636;51.684;5.142;2022-09-09T07:48:00;9.52;;;2.20;;
67839;SDS011;54636;51.684;5.142;2022-09-09T07:50:26;9.43;;;2.72;;
67839;SDS011;54636;51.684;5.142;2022-09-09T07:52:52;10.52;;;1.88;;
67839;SDS011;54636;51.684;5.142;2022-09-09T07:55:18;9.63;;;2.40;;
67839;SDS011;54636;51.684;5.142;2022-09-09T07:57:45;6.60;;;1.70;;
67839;SDS011;54636;51.684;5.142;2022-09-09T08:00:11;9.80;;;1.65;;
67839;SDS011;54636;51.684;5.142;2022-09-09T08:02:37;11.50;;;2.88;;
67839;SDS011;54636;51.684;5.142;2022-09-09T08:05:03;7.38;;;2.15;;
67839;SDS011;54636;51.684;5.142;2022-09-09T08:07:30;9.73;;;2.60;;
67839;SDS011;54636;51.684;5.142;2022-09-09T08:09:55;14.05;;;1.85;;
67839;SDS011;54636;51.684;5.142;2022-09-09T08:12:22;5.85;;;2.45;;
67839;SDS011;54636;51.684;5.142;2022-09-09T08:14:48;5.80;;;1.67;;
67839;SDS011;54636;51.684;5.142;2022-09-09T08:17:14;7.30;;;1.50;;
67839;SDS011;54636;51.684;5.142;2022-09-09T08:19:39;7.63;;;1.73;;
67839;SDS011;54636;51.684;5.142;2022-09-09T08:22:04;9.35;;;1.77;;
67839;SDS011;54636;51.684;5.142;2022-09-09T08:24:30;4.40;;;1.75;;
67839;SDS011;54636;51.684;5.142;2022-09-09T08:26:55;10.48;;;1.88;;
67839;SDS011;54636;51.684;5.142;2022-09-09T08:29:21;5.95;;;1.63;;
67839;SDS011;54636;51.684;5.142;2022-09-09T08:31:52;6.97;;;1.70;;
67839;SDS011;54636;51.684;5.142;2022-09-09T08:34:19;5.00;;;1.42;;
67839;SDS011;54636;51.684;5.142;2022-09-09T08:36:46;9.90;;;1.75;;
67839;SDS011;54636;51.684;5.142;2022-09-09T08:39:14;10.38;;;1.90;;
67839;SDS011;54636;51.684;5.142;2022-09-09T08:41:48;7.72;;;1.95;;
67839;SDS011;54636;51.684;5.142;2022-09-09T08:50:22;14.32;;;2.45;;
67839;SDS011;54636;51.684;5.142;2022-09-09T09:06:37;8.02;;;2.05;;
67839;SDS011;54636;51.684;5.142;2022-09-09T09:11:38;6.75;;;1.88;;
67839;SDS011;54636;51.684;5.142;2022-09-09T09:14:26;6.95;;;2.28;;
67839;SDS011;54636;51.684;5.142;2022-09-09T09:17:00;9.35;;;2.88;;
67839;SDS011;54636;51.684;5.142;2022-09-09T09:19:28;10.25;;;2.50;;
67839;SDS011;54636;51.684;5.142;2022-09-09T09:24:27;6.22;;;1.45;;
67839;SDS011;54636;51.684;5.142;2022-09-09T09:27:08;5.35;;;1.63;;
67839;SDS011;54636;51.684;5.142;2022-09-09T09:29:37;10.32;;;2.17;;
67839;SDS011;54636;51.684;5.142;2022-09-09T09:32:05;12.75;;;1.88;;
67839;SDS011;54636;51.684;5.142;2022-09-09T09:34:37;9.60;;;2.42;;
67839;SDS011;54636;51.684;5.142;2022-09-09T09:37:07;7.60;;;2.33;;
67839;SDS011;54636;51.684;5.142;2022-09-09T09:39:43;11.05;;;2.38;;
67839;SDS011;54636;51.684;5.142;2022-09-09T09:42:12;7.57;;;2.10;;
67839;SDS011;54636;51.684;5.142;2022-09-09T09:44:39;10.38;;;1.92;;
67839;SDS011;54636;51.684;5.142;2022-09-09T09:47:06;15.30;;;2.92;;
67839;SDS011;54636;51.684;5.142;2022-09-09T09:49:34;8.05;;;2.35;;
67839;SDS011;54636;51.684;5.142;2022-09-09T09:52:12;14.50;;;2.97;;
67839;SDS011;54636;51.684;5.142;2022-09-09T09:54:45;8.68;;;1.92;;
67839;SDS011;54636;51.684;5.142;2022-09-09T09:57:12;10.25;;;2.33;;
67839;SDS011;54636;51.684;5.142;2022-09-09T09:59:40;5.32;;;1.85;;
67839;SDS011;54636;51.684;5.142;2022-09-09T10:02:10;5.85;;;2.15;;
67839;SDS011;54636;51.684;5.142;2022-09-09T10:04:43;7.57;;;1.77;;
67839;SDS011;54636;51.684;5.142;2022-09-09T10:07:15;5.15;;;2.17;;
67839;SDS011;54636;51.684;5.142;2022-09-09T10:09:43;5.30;;;2.08;;
67839;SDS011;54636;51.684;5.142;2022-09-09T10:23:00;7.30;;;2.05;;
67839;SDS011;54636;51.684;5.142;2022-09-09T10:25:55;8.52;;;2.22;;
67839;SDS011;54636;51.684;5.142;2022-09-09T10:31:19;10.25;;;2.10;;
67839;SDS011;54636;51.684;5.142;2022-09-09T10:33:57;7.60;;;1.90;;
67839;SDS011;54636;51.684;5.142;2022-09-09T10:36:36;8.02;;;1.75;;
67839;SDS011;54636;51.684;5.142;2022-09-09T10:42:05;6.80;;;2.00;;
67839;SDS011;54636;51.684;5.142;2022-09-09T10:55:41;5.47;;;2.17;;
67839;SDS011;54636;51.684;5.142;2022-09-09T10:58:13;8.68;;;2.05;;
67839;SDS011;54636;51.684;5.142;2022-09-09T11:00:49;5.82;;;2.30;;
67839;SDS011;54636;51.684;5.142;2022-09-09T11:03:23;3.72;;;1.83;;
67839;SDS011;54636;51.684;5.142;2022-09-09T11:08:29;8.60;;;2.38;;
67839;SDS011;54636;51.684;5.142;2022-09-09T11:11:06;6.35;;;2.20;;
67839;SDS011;54636;51.684;5.142;2022-09-09T11:18:51;7.03;;;2.03;;
67839;SDS011;54636;51.684;5.142;2022-09-09T11:21:31;7.95;;;1.52;;
67839;SDS011;54636;51.684;5.142;2022-09-09T11:24:11;9.45;;;1.98;;
67839;SDS011;54636;51.684;5.142;2022-09-09T11:26:47;4.18;;;2.00;;
67839;SDS011;54636;51.684;5.142;2022-09-09T11:35:11;7.93;;;2.08;;
67839;SDS011;54636;51.684;5.142;2022-09-09T11:40:43;7.13;;;1.67;;
67839;SDS011;54636;51.684;5.142;2022-09-09T11:43:10;5.95;;;1.95;;
67839;SDS011;54636;51.684;5.142;2022-09-09T11:45:53;3.53;;;1.58;;
67839;SDS011;54636;51.684;5.142;2022-09-09T11:56:29;6.50;;;1.67;;
67839;SDS011;54636;51.684;5.142;2022-09-09T11:59:21;7.18;;;1.80;;
67839;SDS011;54636;51.684;5.142;2022-09-09T12:07:04;5.85;;;1.77;;
67839;SDS011;54636;51.684;5.142;2022-09-09T12:09:50;4.32;;;1.70;;
67839;SDS011;54636;51.684;5.142;2022-09-09T12:14:57;8.00;;;2.00;;
67839;SDS011;54636;51.684;5.142;2022-09-09T12:17:26;6.72;;;1.75;;
67839;SDS011;54636;51.684;5.142;2022-09-09T12:20:00;3.63;;;1.52;;
67839;SDS011;54636;51.684;5.142;2022-09-09T12:33:53;11.05;;;2.00;;
67839;SDS011;54636;51.684;5.142;2022-09-09T12:36:19;6.93;;;1.55;;
67839;SDS011;54636;51.684;5.142;2022-09-09T12:38:54;7.13;;;1.63;;
67839;SDS011;54636;51.684;5.142;2022-09-09T12:41:25;4.47;;;1.60;;
67839;SDS011;54636;51.684;5.142;2022-09-09T12:44:05;6.03;;;1.63;;
67839;SDS011;54636;51.684;5.142;2022-09-09T12:46:41;3.38;;;1.92;;
67839;SDS011;54636;51.684;5.142;2022-09-09T12:49:29;6.00;;;2.30;;
67839;SDS011;54636;51.684;5.142;2022-09-09T12:52:16;7.18;;;1.92;;
67839;SDS011;54636;51.684;5.142;2022-09-09T12:54:47;4.15;;;1.73;;
67839;SDS011;54636;51.684;5.142;2022-09-09T12:57:16;3.75;;;1.50;;
67839;SDS011;54636;51.684;5.142;2022-09-09T12:59:42;4.70;;;1.88;;
67839;SDS011;54636;51.684;5.142;2022-09-09T13:02:23;4.88;;;1.50;;
67839;SDS011;54636;51.684;5.142;2022-09-09T13:04:50;4.63;;;1.73;;
67839;SDS011;54636;51.684;5.142;2022-09-09T13:07:18;3.97;;;1.70;;
67839;SDS011;54636;51.684;5.142;2022-09-09T13:09:45;4.90;;;1.88;;
67839;SDS011;54636;51.684;5.142;2022-09-09T13:12:15;5.75;;;1.70;;
67839;SDS011;54636;51.684;5.142;2022-09-09T13:14:44;4.57;;;1.48;;
67839;SDS011;54636;51.684;5.142;2022-09-09T13:17:20;3.10;;;1.17;;
67839;SDS011;54636;51.684;5.142;2022-09-09T13:19:47;4.07;;;1.70;;
67839;SDS011;54636;51.684;5.142;2022-09-09T13:29:59;5.55;;;1.52;;
67839;SDS011;54636;51.684;5.142;2022-09-09T13:32:26;3.35;;;1.40;;
67839;SDS011;54636;51.684;5.142;2022-09-09T13:34:53;7.22;;;1.67;;
67839;SDS011;54636;51.684;5.142;2022-09-09T13:37:22;4.15;;;1.10;;
67839;SDS011;54636;51.684;5.142;2022-09-09T13:39:55;1.92;;;1.00;;
67839;SDS011;54636;51.684;5.142;2022-09-09T13:42:25;2.95;;;1.38;;
67839;SDS011;54636;51.684;5.142;2022-09-09T13:44:52;4.97;;;1.30;;
67839;SDS011;54636;51.684;5.142;2022-09-09T13:47:26;3.88;;;1.42;;
67839;SDS011;54636;51.684;5.142;2022-09-09T13:49:56;4.00;;;1.45;;
67839;SDS011;54636;51.684;5.142;2022-09-09T13:52:21;1.73;;;1.13;;
67839;SDS011;54636;51.684;5.142;2022-09-09T13:54:50;3.45;;;1.48;;
67839;SDS011;54636;51.684;5.142;2022-09-09T13:57:18;10.52;;;1.45;;
67839;SDS011;54636;51.684;5.142;2022-09-09T13:59:45;1.58;;;0.90;;
67839;SDS011;54636;51.684;5.142;2022-09-09T14:02:12;4.88;;;1.30;;
67839;SDS011;54636;51.684;5.142;2022-09-09T14:04:38;2.47;;;1.17;;
67839;SDS011;54636;51.684;5.142;2022-09-09T14:07:07;3.63;;;1.15;;
67839;SDS011;54636;51.684;5.142;2022-09-09T14:09:36;4.05;;;1.10;;
67839;SDS011;54636;51.684;5.142;2022-09-09T14:12:01;1.70;;;0.70;;
67839;SDS011;54636;51.684;5.142;2022-09-09T14:14:27;6.60;;;0.90;;
67839;SDS011;54636;51.684;5.142;2022-09-09T14:16:53;8.13;;;0.95;;
67839;SDS011;54636;51.684;5.142;2022-09-09T14:19:18;2.70;;;1.38;;
67839;SDS011;54636;51.684;5.142;2022-09-09T14:21:44;3.53;;;1.20;;
67839;SDS011;54636;51.684;5.142;2022-09-09T14:24:09;1.85;;;0.82;;
67839;SDS011;54636;51.684;5.142;2022-09-09T14:26:34;4.15;;;1.05;;
67839;SDS011;54636;51.684;5.142;2022-09-09T14:29:00;2.53;;;1.00;;
67839;SDS011;54636;51.684;5.142;2022-09-09T14:31:26;2.92;;;1.33;;
67839;SDS011;54636;51.684;5.142;2022-09-09T14:33:51;6.25;;;1.25;;
67839;SDS011;54636;51.684;5.142;2022-09-09T14:36:18;3.95;;;1.23;;
67839;SDS011;54636;51.684;5.142;2022-09-09T14:38:43;3.40;;;1.00;;
67839;SDS011;54636;51.684;5.142;2022-09-09T14:41:10;2.10;;;1.17;;
67839;SDS011;54636;51.684;5.142;2022-09-09T14:43:39;2.13;;;0.95;;
67839;SDS011;54636;51.684;5.142;2022-09-09T14:46:06;0.70;;;0.70;;
67839;SDS011;54636;51.684;5.142;2022-09-09T14:48:33;2.45;;;1.25;;
67839;SDS011;54636;51.684;5.142;2022-09-09T14:51:04;6.35;;;0.88;;
67839;SDS011;54636;51.684;5.142;2022-09-09T14:53:33;2.70;;;0.88;;
67839;SDS011;54636;51.684;5.142;2022-09-09T14:56:06;2.53;;;1.20;;
67839;SDS011;54636;51.684;5.142;2022-09-09T14:58:36;2.72;;;0.90;;
67839;SDS011;54636;51.684;5.142;2022-09-09T15:01:09;1.23;;;0.90;;
67839;SDS011;54636;51.684;5.142;2022-09-09T15:03:37;2.10;;;1.02;;
67839;SDS011;54636;51.684;5.142;2022-09-09T15:06:09;2.72;;;1.25;;
67839;SDS011;54636;51.684;5.142;2022-09-09T15:08:36;4.38;;;1.40;;
67839;SDS011;54636;51.684;5.142;2022-09-09T15:11:03;2.60;;;1.00;;
67839;SDS011;54636;51.684;5.142;2022-09-09T15:13:29;2.80;;;1.08;;
67839;SDS011;54636;51.684;5.142;2022-09-09T15:15:55;2.75;;;1.23;;
67839;SDS011;54636;51.684;5.142;2022-09-09T15:18:21;6.40;;;1.30;;
67839;SDS011;54636;51.684;5.142;2022-09-09T15:20:46;3.38;;;1.42;;
67839;SDS011;54636;51.684;5.142;2022-09-09T15:23:12;4.22;;;1.40;;
67839;SDS011;54636;51.684;5.142;2022-09-09T15:25:38;2.85;;;1.73;;
67839;SDS011;54636;51.684;5.142;2022-09-09T15:28:14;3.45;;;1.75;;
67839;SDS011;54636;51.684;5.142;2022-09-09T15:30:39;4.30;;;1.30;;
67839;SDS011;54636;51.684;5.142;2022-09-09T15:33:07;2.78;;;1.10;;
67839;SDS011;54636;51.684;5.142;2022-09-09T15:35:33;3.05;;;1.70;;
67839;SDS011;54636;51.684;5.142;2022-09-09T15:38:01;4.38;;;1.38;;
67839;SDS011;54636;51.684;5.142;2022-09-09T15:40:29;2.35;;;1.25;;
67839;SDS011;54636;51.684;5.142;2022-09-09T15:42:57;4.55;;;1.30;;
67839;SDS011;54636;51.684;5.142;2022-09-09T15:45:23;2.53;;;1.20;;
67839;SDS011;54636;51.684;5.142;2022-09-09T15:47:48;3.53;;;1.20;;
67839;SDS011;54636;51.684;5.142;2022-09-09T15:50:14;3.03;;;1.25;;
67839;SDS011;54636;51.684;5.142;2022-09-09T15:52:39;2.15;;;1.20;;
67839;SDS011;54636;51.684;5.142;2022-09-09T15:55:05;4.32;;;1.27;;
67839;SDS011;54636;51.684;5.142;2022-09-09T15:57:30;2.03;;;0.90;;
67839;SDS011;54636;51.684;5.142;2022-09-09T15:59:56;0.93;;;0.77;;
67839;SDS011;54636;51.684;5.142;2022-09-09T16:02:22;3.08;;;0.70;;
67839;SDS011;54636;51.684;5.142;2022-09-09T16:04:47;1.85;;;0.65;;
67839;SDS011;54636;51.684;5.142;2022-09-09T16:07:12;1.65;;;1.10;;
67839;SDS011;54636;51.684;5.142;2022-09-09T16:09:38;3.97;;;1.00;;
67839;SDS011;54636;51.684;5.142;2022-09-09T16:12:04;5.10;;;0.98;;
67839;SDS011;54636;51.684;5.142;2022-09-09T16:14:31;2.33;;;1.05;;
67839;SDS011;54636;51.684;5.142;2022-09-09T16:16:59;1.75;;;0.73;;
67839;SDS011;54636;51.684;5.142;2022-09-09T16:19:25;4.43;;;1.73;;
67839;SDS011;54636;51.684;5.142;2022-09-09T16:21:50;5.43;;;0.93;;
67839;SDS011;54636;51.684;5.142;2022-09-09T16:24:17;1.35;;;0.90;;
67839;SDS011;54636;51.684;5.142;2022-09-09T16:26:44;2.90;;;1.00;;
67839;SDS011;54636;51.684;5.142;2022-09-09T16:29:15;1.58;;;1.00;;
67839;SDS011;54636;51.684;5.142;2022-09-09T16:31:42;4.93;;;1.50;;
67839;SDS011;54636;51.684;5.142;2022-09-09T16:34:09;4.47;;;1.20;;
67839;SDS011;54636;51.684;5.142;2022-09-09T16:36:35;3.17;;;1.38;;
67839;SDS011;54636;51.684;5.142;2022-09-09T16:39:04;5.43;;;1.33;;
67839;SDS011;54636;51.684;5.142;2022-09-09T16:41:31;4.20;;;1.20;;
67839;SDS011;54636;51.684;5.142;2022-09-09T16:43:58;3.88;;;1.60;;
67839;SDS011;54636;51.684;5.142;2022-09-09T16:46:27;3.67;;;1.15;;
67839;SDS011;54636;51.684;5.142;2022-09-09T16:48:53;3.67;;;1.45;;
67839;SDS011;54636;51.684;5.142;2022-09-09T16:51:27;5.50;;;1.50;;
67839;SDS011;54636;51.684;5.142;2022-09-09T16:53:54;2.83;;;0.95;;
67839;SDS011;54636;51.684;5.142;2022-09-09T16:56:23;4.68;;;1.35;;
67839;SDS011;54636;51.684;5.142;2022-09-09T16:58:52;3.47;;;1.65;;
67839;SDS011;54636;51.684;5.142;2022-09-09T17:01:20;5.70;;;1.60;;
67839;SDS011;54636;51.684;5.142;2022-09-09T17:03:45;6.32;;;1.70;;
67839;SDS011;54636;51.684;5.142;2022-09-09T17:06:11;5.13;;;1.42;;
67839;SDS011;54636;51.684;5.142;2022-09-09T17:08:38;5.45;;;2.10;;
67839;SDS011;54636;51.684;5.142;2022-09-09T17:11:16;2.50;;;1.30;;
67839;SDS011;54636;51.684;5.142;2022-09-09T17:13:44;2.88;;;1.60;;
67839;SDS011;54636;51.684;5.142;2022-09-09T17:16:11;5.35;;;1.77;;